createdAt,value
2019-05-13T00:00:10.341Z,99433.03
2019-05-13T00:02:44.188Z,99438.77
2019-05-13T00:05:17.988Z,99439.09
2019-05-13T00:07:53.832Z,99441.78
2019-05-13T00:10:27.377Z,99445.32
2019-05-13T00:13:01.248Z,99443.13
2019-05-13T00:15:34.992Z,99443.13
2019-05-13T00:18:09.020Z,99441.45
2019-05-13T00:20:44.300Z,99438.43
2019-05-13T00:23:19.376Z,99433.88
2019-05-13T00:25:54.571Z,99434.39
2019-05-13T00:28:29.834Z,99441.45
2019-05-13T00:31:03.641Z,99438.91
2019-05-13T00:33:37.359Z,99438.43
2019-05-13T00:36:14.105Z,99446.85
2019-05-13T00:38:47.167Z,99448.71
2019-05-13T00:41:21.806Z,99442.48
2019-05-13T00:43:57.079Z,99441.12
2019-05-13T00:46:30.809Z,99451.56
2019-05-13T00:49:04.888Z,99439.93
2019-05-13T00:51:38.726Z,99445.66
2019-05-13T00:54:13.601Z,99439.93
2019-05-13T00:56:49.223Z,99447.69
2019-05-13T00:59:24.238Z,99449.88
2019-05-13T01:01:58.101Z,99452.58
2019-05-13T01:04:33.867Z,99451.23
2019-05-13T01:07:15.399Z,99456.62
2019-05-13T01:09:44.335Z,99454.77
2019-05-13T01:12:18.115Z,99458.95
2019-05-13T01:14:53.444Z,99460.30
2019-05-13T01:17:27.394Z,99458.95
2019-05-13T01:20:01.217Z,99456.44
2019-05-13T01:22:34.957Z,99460.13
2019-05-13T01:25:08.779Z,99463.70
2019-05-13T01:27:44.173Z,99462.83
2019-05-13T01:30:19.165Z,99464.35
2019-05-13T01:32:53.981Z,99468.73
2019-05-13T01:35:27.860Z,99471.94
2019-05-13T01:38:04.235Z,99467.56
2019-05-13T01:40:37.366Z,99473.44
2019-05-13T01:43:11.063Z,99463.52
2019-05-13T01:45:44.823Z,99468.40
2019-05-13T01:48:18.707Z,99469.75
2019-05-13T01:50:53.353Z,99468.40
2019-05-13T01:53:27.554Z,99472.77
2019-05-13T01:56:03.919Z,99475.98
2019-05-13T01:58:37.858Z,99468.40
2019-05-13T02:01:13.863Z,99478.67
2019-05-13T02:03:47.277Z,99471.94
2019-05-13T02:06:20.930Z,99469.75
2019-05-13T02:08:54.731Z,99478.67
2019-05-13T02:11:28.840Z,99475.14
2019-05-13T02:14:05.924Z,99475.98
2019-05-13T02:16:39.665Z,99478.67
2019-05-13T02:19:14.299Z,99477.33
2019-05-13T02:21:48.182Z,99478.67
2019-05-13T02:24:23.823Z,99478.67
2019-05-13T02:26:57.733Z,99484.40
2019-05-13T02:29:34.202Z,99485.42
2019-05-13T02:32:07.051Z,99488.11
2019-05-13T02:34:43.777Z,99488.11
2019-05-13T02:37:16.313Z,99488.63
2019-05-13T02:39:52.942Z,99480.17
2019-05-13T02:42:25.469Z,99492.31
2019-05-13T02:44:59.231Z,99495.88
2019-05-13T02:47:33.293Z,99502.62
2019-05-13T02:50:07.383Z,99500.25
2019-05-13T02:52:43.919Z,99498.57
2019-05-13T02:55:16.543Z,99499.92
2019-05-13T02:57:52.785Z,99503.97
2019-05-13T03:00:25.758Z,99506.99
2019-05-13T03:03:02.910Z,99509.36
2019-05-13T03:05:35.064Z,99516.10
2019-05-13T03:08:12.447Z,99508.48
2019-05-13T03:10:44.180Z,99514.75
2019-05-13T03:13:17.977Z,99518.44
2019-05-13T03:16:02.481Z,99519.78
2019-05-13T03:18:35.200Z,99519.27
2019-05-13T03:21:12.423Z,99524.34
2019-05-13T03:23:44.656Z,99528.39
2019-05-13T03:26:18.592Z,99526.20
2019-05-13T03:28:52.586Z,99528.72
2019-05-13T03:31:27.025Z,99523.50
2019-05-13T03:34:06.599Z,99525.36
2019-05-13T03:36:44.955Z,99528.56
2019-05-13T03:39:16.644Z,99531.26
2019-05-13T03:41:52.874Z,99530.75
2019-05-13T03:44:25.770Z,99535.63
2019-05-13T03:46:59.365Z,99538.48
2019-05-13T03:49:35.669Z,99541.69
2019-05-13T03:52:09.262Z,99546.56
2019-05-13T03:54:43.718Z,99546.56
2019-05-13T03:57:17.555Z,99548.79
2019-05-13T03:59:52.641Z,99550.61
2019-05-13T04:02:26.504Z,99552.47
2019-05-13T04:05:03.784Z,99559.58
2019-05-13T04:07:35.839Z,99557.86
2019-05-13T04:10:12.909Z,99557.86
2019-05-13T04:12:45.284Z,99563.26
2019-05-13T04:15:23.492Z,99573.20
2019-05-13T04:17:56.377Z,99579.95
2019-05-13T04:20:33.008Z,99583.99
2019-05-13T04:23:05.662Z,99585.34
2019-05-13T04:25:44.245Z,99590.73
2019-05-13T04:28:14.829Z,99588.03
2019-05-13T04:30:48.843Z,99594.77
2019-05-13T04:33:23.305Z,99599.33
2019-05-13T04:35:57.155Z,99593.94
2019-05-13T04:38:33.031Z,99593.94
2019-05-13T04:41:06.461Z,99586.00
2019-05-13T04:43:43.819Z,99595.80
2019-05-13T04:46:15.614Z,99594.92
2019-05-13T04:48:52.744Z,99600.31
2019-05-13T04:51:24.774Z,99597.62
2019-05-13T04:53:58.516Z,99606.58
2019-05-13T04:56:33.236Z,99599.84
2019-05-13T04:59:07.248Z,99598.49
2019-05-13T05:02:49.494Z,99597.62
2019-05-13T05:05:55.516Z,99595.80
2019-05-13T05:09:03.296Z,99593.94
2019-05-13T05:12:51.889Z,99585.84
2019-05-13T05:16:21.964Z,99593.24
2019-05-13T05:19:44.894Z,99591.85
2019-05-13T05:23:25.690Z,99598.45
2019-05-13T05:27:08.512Z,99604.73
2019-05-13T05:30:26.687Z,99607.05
2019-05-13T05:34:06.479Z,99613.47
2019-05-13T05:37:26.884Z,99615.00
2019-05-13T05:40:01.968Z,99609.42
2019-05-13T05:42:36.238Z,99608.77
2019-05-13T05:45:11.572Z,99610.45
2019-05-13T05:47:45.707Z,99607.25
2019-05-13T05:50:19.436Z,99613.01
2019-05-13T05:52:53.172Z,99608.12
2019-05-13T05:55:26.979Z,99608.45
2019-05-13T05:58:01.607Z,99606.13
2019-05-13T06:00:36.247Z,99611.14
2019-05-13T06:03:13.572Z,99607.43
2019-05-13T06:05:45.711Z,99613.84
2019-05-13T06:08:22.055Z,99613.37
2019-05-13T06:10:56.093Z,99621.47
2019-05-13T06:13:31.600Z,99625.00
2019-05-13T06:16:05.343Z,99621.47
2019-05-13T06:18:41.398Z,99626.86
2019-05-13T06:21:14.923Z,99620.11
2019-05-13T06:23:48.651Z,99625.84
2019-05-13T06:26:23.689Z,99628.20
2019-05-13T06:28:59.251Z,99630.03
2019-05-13T06:31:33.919Z,99629.70
2019-05-13T06:34:07.620Z,99629.70
2019-05-13T06:36:41.990Z,99634.25
2019-05-13T06:39:15.853Z,99638.95
2019-05-13T06:41:51.660Z,99637.60
2019-05-13T06:44:24.984Z,99635.75
2019-05-13T06:46:58.742Z,99639.79
2019-05-13T06:49:32.713Z,99635.75
2019-05-13T06:52:06.525Z,99645.55
2019-05-13T06:54:41.870Z,99639.79
2019-05-13T06:57:15.913Z,99646.21
2019-05-13T06:59:52.030Z,99643.52
2019-05-13T07:02:25.145Z,99639.14
2019-05-13T07:04:58.927Z,99650.94
2019-05-13T07:07:33.214Z,99651.59
2019-05-13T07:10:07.144Z,99654.48
2019-05-13T07:12:41.320Z,99662.20
2019-05-13T07:15:15.198Z,99666.76
2019-05-13T07:17:51.805Z,99674.84
2019-05-13T07:20:24.411Z,99670.16
2019-05-13T07:22:58.177Z,99667.96
2019-05-13T07:25:32.839Z,99666.11
2019-05-13T07:28:06.713Z,99670.99
2019-05-13T07:30:43.250Z,99675.88
2019-05-13T07:33:16.992Z,99677.23
2019-05-13T07:35:57.279Z,99673.18
2019-05-13T07:38:26.259Z,99672.34
2019-05-13T07:41:04.621Z,99666.44
2019-05-13T07:43:39.339Z,99673.69
2019-05-13T07:46:13.139Z,99675.41
2019-05-13T07:48:46.987Z,99675.88
2019-05-13T07:51:22.168Z,99677.73
2019-05-13T07:53:56.318Z,99680.94
2019-05-13T07:56:32.411Z,99678.24
2019-05-13T07:59:05.399Z,99684.48
2019-05-13T08:01:41.541Z,99686.00
2019-05-13T08:04:22.447Z,99680.10
2019-05-13T08:06:52.364Z,99692.38
2019-05-13T08:09:25.615Z,99691.03
2019-05-13T08:12:08.681Z,99687.83
2019-05-13T08:14:35.186Z,99688.84
2019-05-13T08:17:11.648Z,99688.14
2019-05-13T08:19:46.254Z,99692.69
2019-05-13T08:22:22.074Z,99687.58
2019-05-13T08:24:55.544Z,99693.14
2019-05-13T08:27:30.803Z,99696.86
2019-05-13T08:30:07.110Z,99694.16
2019-05-13T08:32:41.900Z,99705.42
2019-05-13T08:35:15.773Z,99705.09
2019-05-13T08:37:51.867Z,99708.62
2019-05-13T08:40:25.521Z,99703.73
2019-05-13T08:43:01.340Z,99702.72
2019-05-13T08:45:34.749Z,99706.77
2019-05-13T08:48:08.578Z,99710.81
2019-05-13T08:50:42.844Z,99710.34
2019-05-13T08:53:16.531Z,99716.57
2019-05-13T08:55:52.098Z,99721.64
2019-05-13T08:58:27.249Z,99719.59
2019-05-13T09:01:02.209Z,99734.09
2019-05-13T09:03:36.291Z,99739.48
2019-05-13T09:06:11.648Z,99730.05
2019-05-13T09:08:45.630Z,99728.34
2019-05-13T09:11:19.374Z,99735.08
2019-05-13T09:13:53.243Z,99736.80
2019-05-13T09:16:27.142Z,99734.94
2019-05-13T09:19:03.670Z,99733.73
2019-05-13T09:21:36.531Z,99740.33
2019-05-13T09:24:24.114Z,99732.94
2019-05-13T09:26:47.209Z,99729.69
2019-05-13T09:29:22.549Z,99725.81
2019-05-13T09:31:56.706Z,99722.02
2019-05-13T09:34:32.819Z,99714.02
2019-05-13T09:37:06.143Z,99724.52
2019-05-13T09:39:41.478Z,99718.06
2019-05-13T09:42:15.398Z,99724.64
2019-05-13T09:44:49.257Z,99720.28
2019-05-13T09:47:23.160Z,99730.55
2019-05-13T09:49:57.075Z,99719.05
2019-05-13T09:52:31.880Z,99721.83
2019-05-13T09:55:21.128Z,99716.61
2019-05-13T09:57:41.877Z,99725.71
2019-05-13T10:00:17.307Z,99721.11
2019-05-13T10:02:53.033Z,99713.22
2019-05-13T10:05:26.871Z,99710.72
2019-05-13T10:08:02.669Z,99732.08
2019-05-13T10:10:36.683Z,99740.08
2019-05-13T10:13:13.112Z,99718.33
2019-05-13T10:15:48.664Z,99729.95
2019-05-13T10:18:22.043Z,99721.44
2019-05-13T10:20:59.035Z,99726.80
2019-05-13T10:23:33.481Z,99716.53
2019-05-13T10:26:12.521Z,99721.24
2019-05-13T10:28:44.926Z,99716.73
2019-05-13T10:31:18.787Z,99722.12
2019-05-13T10:33:53.106Z,99713.00
2019-05-13T10:36:26.872Z,99719.89
2019-05-13T10:39:01.346Z,99715.50
2019-05-13T10:41:35.519Z,99699.66
2019-05-13T10:44:12.105Z,99698.08
2019-05-13T10:46:45.081Z,99707.91
2019-05-13T10:49:19.370Z,99700.85
2019-05-13T10:51:55.930Z,99698.34
2019-05-13T10:54:32.264Z,99702.95
2019-05-13T10:57:06.549Z,99698.23
2019-05-13T10:59:40.253Z,99700.27
2019-05-13T11:02:14.362Z,99697.58
2019-05-13T11:04:49.330Z,99696.42
2019-05-13T11:07:22.967Z,99692.71
2019-05-13T11:09:56.836Z,99698.98
2019-05-13T11:12:33.367Z,99697.45
2019-05-13T11:15:06.563Z,99693.78
2019-05-13T11:17:42.668Z,99694.44
2019-05-13T11:20:16.177Z,99706.05
2019-05-13T11:22:52.148Z,99706.66
2019-05-13T11:25:26.144Z,99693.27
2019-05-13T11:28:01.654Z,99685.38
2019-05-13T11:30:35.422Z,99689.79
2019-05-13T11:33:10.209Z,99695.09
2019-05-13T11:35:44.030Z,99694.81
2019-05-13T11:38:21.569Z,99702.38
2019-05-13T11:40:54.527Z,99693.41
2019-05-13T11:43:28.994Z,99683.78
2019-05-13T11:46:03.167Z,99712.30
2019-05-13T11:48:36.869Z,99694.97
2019-05-13T11:51:13.034Z,99695.10
2019-05-13T11:53:46.040Z,99693.81
2019-05-13T11:56:22.731Z,99676.91
2019-05-13T11:58:56.924Z,99672.70
2019-05-13T12:01:33.359Z,99672.29
2019-05-13T12:04:06.225Z,99668.48
2019-05-13T12:06:47.745Z,99667.16
2019-05-13T12:09:15.604Z,99665.67
2019-05-13T12:11:50.352Z,99670.74
2019-05-13T12:14:43.489Z,99670.23
2019-05-13T12:17:02.014Z,99664.84
2019-05-13T12:19:35.098Z,99668.38
2019-05-13T12:22:08.936Z,99666.05
2019-05-13T12:24:43.280Z,99664.20
2019-05-13T12:27:16.907Z,99665.04
2019-05-13T12:29:52.750Z,99672.98
2019-05-13T12:32:26.154Z,99667.08
2019-05-13T12:35:03.244Z,99674.16
2019-05-13T12:37:35.427Z,99671.13
2019-05-13T12:40:09.122Z,99667.92
2019-05-13T12:42:46.847Z,99666.25
2019-05-13T12:45:22.486Z,99665.04
2019-05-13T12:47:55.705Z,99662.70
2019-05-13T12:50:29.462Z,99659.84
2019-05-13T12:53:03.264Z,99659.84
2019-05-13T12:55:36.989Z,99656.30
2019-05-13T12:58:12.281Z,99652.77
2019-05-13T13:00:46.330Z,99655.80
2019-05-13T13:03:23.300Z,99651.75
2019-05-13T13:06:21.123Z,99657.98
2019-05-13T13:08:43.070Z,99647.70
2019-05-13T13:11:07.101Z,99645.66
2019-05-13T13:13:58.097Z,99639.62
2019-05-13T13:16:16.517Z,99647.38
2019-05-13T13:18:52.114Z,99641.80
2019-05-13T13:21:33.317Z,99645.85
2019-05-13T13:24:04.488Z,99642.00
2019-05-13T13:26:42.446Z,99643.16
2019-05-13T13:29:15.044Z,99641.66
2019-05-13T13:31:48.918Z,99658.53
2019-05-13T13:34:25.887Z,99645.90
2019-05-13T13:36:58.440Z,99645.39
2019-05-13T13:39:32.539Z,99646.23
2019-05-13T13:42:06.469Z,99654.69
2019-05-13T13:44:42.894Z,99648.42
2019-05-13T13:47:15.552Z,99645.39
2019-05-13T13:49:49.742Z,99648.09
2019-05-13T13:52:24.833Z,99645.90
2019-05-13T13:55:03.440Z,99656.17
2019-05-13T13:57:33.947Z,99657.52
2019-05-13T14:00:31.761Z,99650.45
2019-05-13T14:02:43.309Z,99664.27
2019-05-13T14:05:17.616Z,99665.75
2019-05-13T14:07:52.222Z,99671.32
2019-05-13T14:10:26.168Z,99675.03
2019-05-13T14:13:04.546Z,99670.11
2019-05-13T14:15:35.323Z,99674.71
2019-05-13T14:18:11.283Z,99673.84
2019-05-13T14:20:44.992Z,99679.59
2019-05-13T14:23:21.304Z,99677.41
2019-05-13T14:25:55.850Z,99681.92
2019-05-13T14:28:32.512Z,99680.95
2019-05-13T14:31:05.166Z,99687.17
2019-05-13T14:33:38.909Z,99684.62
2019-05-13T14:36:12.990Z,99677.88
2019-05-13T14:38:46.673Z,99680.11
2019-05-13T14:41:22.098Z,99681.77
2019-05-13T14:43:56.966Z,99682.44
2019-05-13T14:46:46.367Z,99691.03
2019-05-13T14:49:07.737Z,99695.77
2019-05-13T14:51:42.121Z,99681.78
2019-05-13T14:54:15.947Z,99681.78
2019-05-13T14:56:52.033Z,99682.48
2019-05-13T14:59:31.485Z,99686.36
2019-05-13T15:02:05.408Z,99695.97
2019-05-13T15:04:41.729Z,99691.92
2019-05-13T15:07:14.555Z,99694.95
2019-05-13T15:09:48.325Z,99700.34
2019-05-13T15:12:22.364Z,99697.77
2019-05-13T15:14:56.133Z,99696.28
2019-05-13T15:17:32.399Z,99692.91
2019-05-13T15:20:06.311Z,99696.73
2019-05-13T15:22:42.205Z,99689.69
2019-05-13T15:25:15.462Z,99696.11
2019-05-13T15:27:49.185Z,99701.69
2019-05-13T15:30:23.121Z,99698.16
2019-05-13T15:32:57.076Z,99700.85
2019-05-13T15:35:32.131Z,99702.20
2019-05-13T15:38:06.001Z,99701.36
2019-05-13T15:40:41.491Z,99694.42
2019-05-13T15:43:15.257Z,99692.89
2019-05-13T15:45:51.169Z,99694.05
2019-05-13T15:48:24.501Z,99688.45
2019-05-13T15:50:58.328Z,99679.34
2019-05-13T15:53:32.396Z,99679.34
2019-05-13T15:56:06.147Z,99673.11
2019-05-13T15:58:41.522Z,99672.23
2019-05-13T16:01:15.326Z,99674.59
2019-05-13T16:03:49.016Z,99677.67
2019-05-13T16:06:24.599Z,99675.87
2019-05-13T16:08:58.516Z,99681.78
2019-05-13T16:11:32.772Z,99684.34
2019-05-13T16:14:07.094Z,99683.83
2019-05-13T16:16:41.643Z,99683.47
2019-05-13T16:19:15.778Z,99683.64
2019-05-13T16:21:51.802Z,99691.73
2019-05-13T16:24:25.610Z,99679.94
2019-05-13T16:26:59.226Z,99682.63
2019-05-13T16:29:33.091Z,99674.54
2019-05-13T16:32:07.185Z,99676.39
2019-05-13T16:34:42.282Z,99675.05
2019-05-13T16:37:16.384Z,99669.66
2019-05-13T16:39:52.040Z,99680.44
2019-05-13T16:42:25.525Z,99672.34
2019-05-13T16:44:59.279Z,99664.77
2019-05-13T16:47:33.489Z,99665.94
2019-05-13T16:50:07.684Z,99647.75
2019-05-13T16:52:41.909Z,99661.05
2019-05-13T16:55:15.700Z,99662.91
2019-05-13T16:57:51.326Z,99666.45
2019-05-13T17:00:25.144Z,99662.08
2019-05-13T17:02:58.825Z,99664.27
2019-05-13T17:05:32.794Z,99664.27
2019-05-13T17:08:06.538Z,99662.08
2019-05-13T17:10:42.001Z,99668.81
2019-05-13T17:13:15.824Z,99668.81
2019-05-13T17:15:49.539Z,99670.16
2019-05-13T17:18:23.244Z,99669.80
2019-05-13T17:20:56.991Z,99663.05
2019-05-13T17:23:32.067Z,99671.14
2019-05-13T17:26:05.883Z,99669.80
2019-05-13T17:28:41.783Z,99660.03
2019-05-13T17:31:15.077Z,99653.15
2019-05-13T17:33:48.763Z,99658.68
2019-05-13T17:36:22.518Z,99653.29
2019-05-13T17:38:56.322Z,99645.70
2019-05-13T17:41:31.925Z,99652.45
2019-05-13T17:44:05.517Z,99652.45
2019-05-13T17:46:41.909Z,99651.61
2019-05-13T17:49:16.026Z,99652.11
2019-05-13T17:51:51.684Z,99654.55
2019-05-13T17:54:25.648Z,99656.11
2019-05-13T17:57:01.611Z,99655.80
2019-05-13T17:59:34.896Z,99660.47
2019-05-13T18:02:08.770Z,99660.30
2019-05-13T18:04:43.080Z,99652.58
2019-05-13T18:07:16.823Z,99653.75
2019-05-13T18:09:52.033Z,99653.94
2019-05-13T18:12:25.902Z,99658.86
2019-05-13T18:15:02.276Z,99654.11
2019-05-13T18:17:35.374Z,99665.59
2019-05-13T18:20:09.224Z,99655.14
2019-05-13T18:22:42.971Z,99652.78
2019-05-13T18:25:16.819Z,99649.75
2019-05-13T18:27:52.167Z,99655.48
2019-05-13T18:30:26.232Z,99660.22
2019-05-13T18:33:01.304Z,99664.27
2019-05-13T18:35:35.199Z,99663.93
2019-05-13T18:38:08.913Z,99667.97
2019-05-13T18:40:42.740Z,99669.32
2019-05-13T18:43:16.582Z,99667.97
2019-05-13T18:45:52.666Z,99669.46
2019-05-13T18:48:25.891Z,99674.71
2019-05-13T18:51:01.303Z,99667.10
2019-05-13T18:53:35.567Z,99669.15
2019-05-13T18:56:09.263Z,99675.74
2019-05-13T18:58:43.041Z,99670.49
2019-05-13T19:01:16.905Z,99671.52
2019-05-13T19:03:50.784Z,99669.66
2019-05-13T19:06:24.561Z,99671.33
2019-05-13T19:08:58.428Z,99666.63
2019-05-13T19:11:32.359Z,99667.42
2019-05-13T19:14:06.072Z,99670.60
2019-05-13T19:16:41.995Z,99667.55
2019-05-13T19:19:17.043Z,99659.27
2019-05-13T19:21:51.194Z,99658.09
2019-05-13T19:24:25.065Z,99659.44
2019-05-13T19:27:01.484Z,99658.61
2019-05-13T19:29:34.525Z,99659.97
2019-05-13T19:32:08.403Z,99663.50
2019-05-13T19:34:42.471Z,99659.97
2019-05-13T19:37:16.465Z,99651.03
2019-05-13T19:39:50.180Z,99661.45
2019-05-13T19:42:23.900Z,99658.42
2019-05-13T19:44:57.733Z,99659.77
2019-05-13T19:47:31.454Z,99661.12
2019-05-13T19:50:05.479Z,99659.77
2019-05-13T19:52:41.294Z,99656.23
2019-05-13T19:55:14.677Z,99654.55
2019-05-13T19:57:48.516Z,99657.25
2019-05-13T20:00:22.630Z,99645.59
2019-05-13T20:02:56.462Z,99646.94
2019-05-13T20:05:31.757Z,99644.42
2019-05-13T20:08:05.907Z,99643.41
2019-05-13T20:10:42.337Z,99644.25
2019-05-13T20:13:15.550Z,99639.37
2019-05-13T20:15:49.304Z,99642.56
2019-05-13T20:18:26.390Z,99641.73
2019-05-13T20:21:01.072Z,99632.80
2019-05-13T20:23:34.419Z,99628.08
2019-05-13T20:26:08.133Z,99628.44
2019-05-13T20:28:42.161Z,99616.69
2019-05-13T20:31:15.910Z,99622.94
2019-05-13T20:33:51.547Z,99617.40
2019-05-13T20:36:25.291Z,99619.08
2019-05-13T20:38:59.173Z,99620.80
2019-05-13T20:41:33.162Z,99613.55
2019-05-13T20:44:06.917Z,99614.53
2019-05-13T20:46:42.281Z,99614.38
2019-05-13T20:49:16.356Z,99607.97
2019-05-13T20:51:51.673Z,99601.92
2019-05-13T20:54:25.403Z,99607.31
2019-05-13T20:56:59.068Z,99606.95
2019-05-13T20:59:33.167Z,99608.66
2019-05-13T21:02:06.946Z,99612.70
2019-05-13T21:04:40.666Z,99605.09
2019-05-13T21:07:14.428Z,99605.45
2019-05-13T21:09:48.287Z,99607.31
2019-05-13T21:12:22.201Z,99598.36
2019-05-13T21:14:55.967Z,99597.37
2019-05-13T21:17:29.623Z,99599.23
2019-05-13T21:20:18.290Z,99599.23
2019-05-13T21:22:38.972Z,99595.19
2019-05-13T21:25:12.694Z,99595.19
2019-05-13T21:27:46.482Z,99595.19
2019-05-13T21:30:22.119Z,99588.92
2019-05-13T21:32:55.847Z,99589.80
2019-05-13T21:35:31.624Z,99592.48
2019-05-13T21:38:05.313Z,99590.78
2019-05-13T21:40:41.344Z,99591.61
2019-05-13T21:43:14.534Z,99584.03
2019-05-13T21:45:48.239Z,99577.30
2019-05-13T21:48:22.454Z,99575.95
2019-05-13T21:50:56.170Z,99581.34
2019-05-13T21:53:32.582Z,99581.34
2019-05-13T21:56:07.315Z,99584.03
2019-05-13T21:58:41.585Z,99585.38
2019-05-13T22:01:15.572Z,99577.30
2019-05-13T22:03:51.282Z,99581.01
2019-05-13T22:06:24.814Z,99590.78
2019-05-13T22:08:58.508Z,99588.44
2019-05-13T22:11:34.897Z,99586.73
2019-05-13T22:14:07.850Z,99579.99
2019-05-13T22:16:42.997Z,99568.22
2019-05-13T22:19:17.821Z,99568.89
2019-05-13T22:21:52.157Z,99568.55
2019-05-13T22:24:26.017Z,99564.00
2019-05-13T22:27:01.945Z,99562.14
2019-05-13T22:29:35.278Z,99565.86
2019-05-13T22:32:11.152Z,99568.89
2019-05-13T22:34:45.652Z,99563.16
2019-05-13T22:37:19.503Z,99561.30
2019-05-13T22:39:54.429Z,99557.44
2019-05-13T22:42:28.181Z,99554.23
2019-05-13T22:45:02.769Z,99563.16
2019-05-13T22:47:37.090Z,99563.16
2019-05-13T22:50:12.718Z,99559.63
2019-05-13T22:52:46.525Z,99549.69
2019-05-13T22:55:21.886Z,99549.35
2019-05-13T22:57:55.641Z,99552.05
2019-05-13T23:00:31.580Z,99556.09
2019-05-13T23:03:04.969Z,99542.61
2019-05-13T23:05:38.760Z,99534.52
2019-05-13T23:08:12.589Z,99544.95
2019-05-13T23:10:46.556Z,99554.38
2019-05-13T23:13:20.356Z,99555.22
2019-05-13T23:15:54.160Z,99556.57
2019-05-13T23:18:27.894Z,99552.52
2019-05-13T23:21:02.426Z,99543.59
2019-05-13T23:23:36.442Z,99534.67
2019-05-13T23:26:11.890Z,99531.47
2019-05-13T23:28:45.668Z,99531.47
2019-05-13T23:31:19.529Z,99536.02
2019-05-13T23:33:53.419Z,99528.11
2019-05-13T23:36:27.123Z,99523.89
2019-05-13T23:39:01.099Z,99519.00
2019-05-13T23:41:35.087Z,99511.94
2019-05-13T23:44:21.688Z,99512.27
2019-05-13T23:46:44.152Z,99509.23
2019-05-13T23:49:17.870Z,99507.89
2019-05-13T23:51:52.044Z,99497.11
2019-05-13T23:54:26.028Z,99493.54
2019-05-13T23:57:01.186Z,99495.25
2019-05-13T23:59:34.957Z,99491.36
